sensor_id;sensor_type;location;lat;lon;timestamp;P1;durP1;ratioP1;P2;durP2;ratioP2
68509;SDS011;55512;50.102;19.958;2024-03-08T00:04:09;23.00;;;9.70;;
68509;SDS011;55512;50.102;19.958;2024-03-08T00:07:02;22.40;;;10.00;;
68509;SDS011;55512;50.102;19.958;2024-03-08T00:12:37;22.30;;;10.00;;
68509;SDS011;55512;50.102;19.958;2024-03-08T00:15:19;18.90;;;9.80;;
68509;SDS011;55512;50.102;19.958;2024-03-08T00:20:55;20.90;;;10.20;;
68509;SDS011;55512;50.102;19.958;2024-03-08T00:23:43;20.40;;;9.70;;
68509;SDS011;55512;50.102;19.958;2024-03-08T00:26:16;21.90;;;11.10;;
68509;SDS011;55512;50.102;19.958;2024-03-08T00:31:57;19.80;;;9.40;;
68509;SDS011;55512;50.102;19.958;2024-03-08T00:37:54;18.60;;;9.30;;
68509;SDS011;55512;50.102;19.958;2024-03-08T00:43:09;19.20;;;9.80;;
68509;SDS011;55512;50.102;19.958;2024-03-08T00:45:46;19.50;;;9.70;;
68509;SDS011;55512;50.102;19.958;2024-03-08T00:48:48;19.40;;;9.20;;
68509;SDS011;55512;50.102;19.958;2024-03-08T00:51:29;19.20;;;8.70;;
68509;SDS011;55512;50.102;19.958;2024-03-08T00:54:10;19.10;;;9.20;;
68509;SDS011;55512;50.102;19.958;2024-03-08T00:57:09;20.10;;;9.50;;
68509;SDS011;55512;50.102;19.958;2024-03-08T01:00:31;17.70;;;8.50;;
68509;SDS011;55512;50.102;19.958;2024-03-08T01:03:35;17.00;;;8.40;;
68509;SDS011;55512;50.102;19.958;2024-03-08T01:06:25;18.20;;;8.70;;
68509;SDS011;55512;50.102;19.958;2024-03-08T01:09:00;20.20;;;9.00;;
68509;SDS011;55512;50.102;19.958;2024-03-08T01:11:31;19.60;;;9.20;;
68509;SDS011;55512;50.102;19.958;2024-03-08T01:17:17;17.70;;;8.00;;
68509;SDS011;55512;50.102;19.958;2024-03-08T01:20:09;19.50;;;9.70;;
68509;SDS011;55512;50.102;19.958;2024-03-08T01:23:04;21.80;;;9.50;;
68509;SDS011;55512;50.102;19.958;2024-03-08T01:25:44;21.30;;;10.10;;
68509;SDS011;55512;50.102;19.958;2024-03-08T01:28:33;19.70;;;9.60;;
68509;SDS011;55512;50.102;19.958;2024-03-08T01:31:04;22.30;;;10.30;;
68509;SDS011;55512;50.102;19.958;2024-03-08T01:33:59;21.30;;;10.00;;
68509;SDS011;55512;50.102;19.958;2024-03-08T01:36:26;24.70;;;11.00;;
68509;SDS011;55512;50.102;19.958;2024-03-08T01:39:06;25.00;;;11.70;;
68509;SDS011;55512;50.102;19.958;2024-03-08T01:42:08;20.20;;;9.80;;
68509;SDS011;55512;50.102;19.958;2024-03-08T01:44:51;22.40;;;10.40;;
68509;SDS011;55512;50.102;19.958;2024-03-08T01:47:54;20.50;;;9.50;;
68509;SDS011;55512;50.102;19.958;2024-03-08T01:50:21;23.70;;;10.60;;
68509;SDS011;55512;50.102;19.958;2024-03-08T01:52:49;22.20;;;10.60;;
68509;SDS011;55512;50.102;19.958;2024-03-08T01:55:29;22.40;;;9.70;;
68509;SDS011;55512;50.102;19.958;2024-03-08T01:58:09;19.70;;;9.50;;
68509;SDS011;55512;50.102;19.958;2024-03-08T02:00:39;19.70;;;10.50;;
68509;SDS011;55512;50.102;19.958;2024-03-08T02:03:47;19.20;;;9.70;;
68509;SDS011;55512;50.102;19.958;2024-03-08T02:06:20;20.60;;;9.60;;
68509;SDS011;55512;50.102;19.958;2024-03-08T02:16:03;20.20;;;8.70;;
68509;SDS011;55512;50.102;19.958;2024-03-08T02:18:49;18.00;;;8.70;;
68509;SDS011;55512;50.102;19.958;2024-03-08T02:21:17;16.40;;;8.50;;
68509;SDS011;55512;50.102;19.958;2024-03-08T02:23:44;21.30;;;10.20;;
68509;SDS011;55512;50.102;19.958;2024-03-08T02:26:38;19.00;;;8.80;;
68509;SDS011;55512;50.102;19.958;2024-03-08T02:29:10;21.40;;;9.60;;
68509;SDS011;55512;50.102;19.958;2024-03-08T02:31:38;17.60;;;9.00;;
68509;SDS011;55512;50.102;19.958;2024-03-08T02:34:26;20.00;;;9.10;;
68509;SDS011;55512;50.102;19.958;2024-03-08T02:37:00;19.40;;;9.80;;
68509;SDS011;55512;50.102;19.958;2024-03-08T02:39:44;22.20;;;10.20;;
68509;SDS011;55512;50.102;19.958;2024-03-08T02:45:24;17.50;;;8.60;;
68509;SDS011;55512;50.102;19.958;2024-03-08T02:48:04;21.00;;;10.30;;
68509;SDS011;55512;50.102;19.958;2024-03-08T02:50:54;18.90;;;9.20;;
68509;SDS011;55512;50.102;19.958;2024-03-08T02:53:32;20.80;;;9.90;;
68509;SDS011;55512;50.102;19.958;2024-03-08T02:56:38;17.90;;;9.90;;
68509;SDS011;55512;50.102;19.958;2024-03-08T02:59:32;21.00;;;10.70;;
68509;SDS011;55512;50.102;19.958;2024-03-08T03:02:14;20.20;;;9.50;;
68509;SDS011;55512;50.102;19.958;2024-03-08T03:04:55;19.10;;;9.30;;
68509;SDS011;55512;50.102;19.958;2024-03-08T03:07:41;20.90;;;10.00;;
68509;SDS011;55512;50.102;19.958;2024-03-08T03:17:23;21.80;;;10.50;;
68509;SDS011;55512;50.102;19.958;2024-03-08T03:20:28;22.20;;;10.60;;
68509;SDS011;55512;50.102;19.958;2024-03-08T03:23:18;22.20;;;10.00;;
68509;SDS011;55512;50.102;19.958;2024-03-08T03:26:09;20.20;;;9.10;;
68509;SDS011;55512;50.102;19.958;2024-03-08T03:34:34;19.60;;;9.70;;
68509;SDS011;55512;50.102;19.958;2024-03-08T03:37:21;21.60;;;9.80;;
68509;SDS011;55512;50.102;19.958;2024-03-08T03:39:48;20.70;;;9.60;;
68509;SDS011;55512;50.102;19.958;2024-03-08T03:42:39;19.40;;;9.10;;
68509;SDS011;55512;50.102;19.958;2024-03-08T03:48:22;21.30;;;9.70;;
68509;SDS011;55512;50.102;19.958;2024-03-08T03:50:52;20.80;;;10.00;;
68509;SDS011;55512;50.102;19.958;2024-03-08T03:53:41;18.40;;;9.00;;
68509;SDS011;55512;50.102;19.958;2024-03-08T03:56:25;21.10;;;10.20;;
68509;SDS011;55512;50.102;19.958;2024-03-08T04:02:05;20.50;;;10.10;;
68509;SDS011;55512;50.102;19.958;2024-03-08T04:05:11;20.00;;;9.80;;
68509;SDS011;55512;50.102;19.958;2024-03-08T04:08:05;19.30;;;9.40;;
68509;SDS011;55512;50.102;19.958;2024-03-08T04:10:52;22.00;;;9.80;;
68509;SDS011;55512;50.102;19.958;2024-03-08T04:16:36;20.60;;;9.10;;
68509;SDS011;55512;50.102;19.958;2024-03-08T04:19:09;20.60;;;9.30;;
68509;SDS011;55512;50.102;19.958;2024-03-08T04:21:53;22.10;;;9.70;;
68509;SDS011;55512;50.102;19.958;2024-03-08T04:27:28;18.50;;;9.60;;
68509;SDS011;55512;50.102;19.958;2024-03-08T04:30:16;22.90;;;9.60;;
68509;SDS011;55512;50.102;19.958;2024-03-08T04:32:59;19.60;;;9.80;;
68509;SDS011;55512;50.102;19.958;2024-03-08T04:35:39;17.80;;;8.70;;
68509;SDS011;55512;50.102;19.958;2024-03-08T04:38:36;22.70;;;10.50;;
68509;SDS011;55512;50.102;19.958;2024-03-08T04:41:30;20.10;;;9.50;;
68509;SDS011;55512;50.102;19.958;2024-03-08T04:44:06;17.70;;;9.20;;
68509;SDS011;55512;50.102;19.958;2024-03-08T04:47:05;21.50;;;10.20;;
68509;SDS011;55512;50.102;19.958;2024-03-08T04:49:46;21.10;;;9.20;;
68509;SDS011;55512;50.102;19.958;2024-03-08T04:52:15;22.50;;;10.00;;
68509;SDS011;55512;50.102;19.958;2024-03-08T04:55:03;21.60;;;10.30;;
68509;SDS011;55512;50.102;19.958;2024-03-08T04:57:37;20.10;;;10.20;;
68509;SDS011;55512;50.102;19.958;2024-03-08T05:00:32;21.20;;;10.20;;
68509;SDS011;55512;50.102;19.958;2024-03-08T05:03:28;21.40;;;9.00;;
68509;SDS011;55512;50.102;19.958;2024-03-08T05:06:01;21.00;;;9.10;;
68509;SDS011;55512;50.102;19.958;2024-03-08T05:08:42;23.20;;;10.60;;
68509;SDS011;55512;50.102;19.958;2024-03-08T05:11:16;20.20;;;9.80;;
68509;SDS011;55512;50.102;19.958;2024-03-08T05:13:50;21.00;;;10.40;;
68509;SDS011;55512;50.102;19.958;2024-03-08T05:16:19;22.10;;;9.50;;
68509;SDS011;55512;50.102;19.958;2024-03-08T05:18:52;22.00;;;10.60;;
68509;SDS011;55512;50.102;19.958;2024-03-08T05:21:35;22.50;;;10.20;;
68509;SDS011;55512;50.102;19.958;2024-03-08T05:24:16;20.30;;;10.70;;
68509;SDS011;55512;50.102;19.958;2024-03-08T05:26:52;21.60;;;10.20;;
68509;SDS011;55512;50.102;19.958;2024-03-08T05:29:34;23.60;;;10.70;;
68509;SDS011;55512;50.102;19.958;2024-03-08T05:32:15;22.40;;;9.90;;
68509;SDS011;55512;50.102;19.958;2024-03-08T05:37:35;19.40;;;9.70;;
68509;SDS011;55512;50.102;19.958;2024-03-08T05:40:30;19.50;;;9.80;;
68509;SDS011;55512;50.102;19.958;2024-03-08T05:43:11;20.50;;;9.80;;
68509;SDS011;55512;50.102;19.958;2024-03-08T05:48:44;20.20;;;9.70;;
68509;SDS011;55512;50.102;19.958;2024-03-08T05:51:34;24.90;;;10.90;;
68509;SDS011;55512;50.102;19.958;2024-03-08T05:54:22;24.00;;;10.50;;
68509;SDS011;55512;50.102;19.958;2024-03-08T05:57:01;20.30;;;9.40;;
68509;SDS011;55512;50.102;19.958;2024-03-08T05:59:53;20.60;;;10.10;;
68509;SDS011;55512;50.102;19.958;2024-03-08T06:05:26;18.30;;;9.00;;
68509;SDS011;55512;50.102;19.958;2024-03-08T06:07:52;21.00;;;10.30;;
68509;SDS011;55512;50.102;19.958;2024-03-08T06:10:32;19.90;;;9.50;;
68509;SDS011;55512;50.102;19.958;2024-03-08T06:15:57;19.00;;;8.80;;
68509;SDS011;55512;50.102;19.958;2024-03-08T06:18:43;19.40;;;9.30;;
68509;SDS011;55512;50.102;19.958;2024-03-08T06:21:12;21.90;;;10.90;;
68509;SDS011;55512;50.102;19.958;2024-03-08T06:23:41;25.20;;;11.20;;
68509;SDS011;55512;50.102;19.958;2024-03-08T06:26:36;19.50;;;9.40;;
68509;SDS011;55512;50.102;19.958;2024-03-08T06:29:12;22.30;;;10.40;;
68509;SDS011;55512;50.102;19.958;2024-03-08T06:31:49;23.60;;;9.50;;
68509;SDS011;55512;50.102;19.958;2024-03-08T06:34:20;24.20;;;10.70;;
68509;SDS011;55512;50.102;19.958;2024-03-08T06:36:59;22.10;;;10.70;;
68509;SDS011;55512;50.102;19.958;2024-03-08T06:39:31;24.40;;;10.90;;
68509;SDS011;55512;50.102;19.958;2024-03-08T06:42:12;24.10;;;11.10;;
68509;SDS011;55512;50.102;19.958;2024-03-08T06:44:41;24.50;;;10.60;;
68509;SDS011;55512;50.102;19.958;2024-03-08T06:47:14;21.80;;;9.80;;
68509;SDS011;55512;50.102;19.958;2024-03-08T06:49:43;26.40;;;10.60;;
68509;SDS011;55512;50.102;19.958;2024-03-08T06:52:18;22.60;;;10.80;;
68509;SDS011;55512;50.102;19.958;2024-03-08T06:54:46;24.40;;;11.40;;
68509;SDS011;55512;50.102;19.958;2024-03-08T06:57:18;22.00;;;10.50;;
68509;SDS011;55512;50.102;19.958;2024-03-08T06:59:58;22.60;;;9.90;;
68509;SDS011;55512;50.102;19.958;2024-03-08T07:02:46;20.70;;;10.50;;
68509;SDS011;55512;50.102;19.958;2024-03-08T07:05:37;21.00;;;10.50;;
68509;SDS011;55512;50.102;19.958;2024-03-08T07:08:23;21.10;;;9.60;;
68509;SDS011;55512;50.102;19.958;2024-03-08T07:10:49;24.50;;;11.60;;
68509;SDS011;55512;50.102;19.958;2024-03-08T07:13:21;22.10;;;11.10;;
68509;SDS011;55512;50.102;19.958;2024-03-08T07:15:59;21.40;;;11.70;;
68509;SDS011;55512;50.102;19.958;2024-03-08T07:25:10;24.00;;;10.50;;
68509;SDS011;55512;50.102;19.958;2024-03-08T07:28:09;25.40;;;11.00;;
68509;SDS011;55512;50.102;19.958;2024-03-08T07:34:38;25.40;;;11.40;;
68509;SDS011;55512;50.102;19.958;2024-03-08T07:37:16;24.10;;;10.90;;
68509;SDS011;55512;50.102;19.958;2024-03-08T07:39:57;27.10;;;12.70;;
68509;SDS011;55512;50.102;19.958;2024-03-08T07:45:27;28.60;;;12.10;;
68509;SDS011;55512;50.102;19.958;2024-03-08T07:47:53;31.30;;;13.50;;
68509;SDS011;55512;50.102;19.958;2024-03-08T07:50:25;29.10;;;12.80;;
68509;SDS011;55512;50.102;19.958;2024-03-08T07:53:06;31.80;;;14.10;;
68509;SDS011;55512;50.102;19.958;2024-03-08T07:55:52;28.70;;;12.00;;
68509;SDS011;55512;50.102;19.958;2024-03-08T07:58:40;28.80;;;13.00;;
68509;SDS011;55512;50.102;19.958;2024-03-08T08:01:25;30.50;;;13.90;;
68509;SDS011;55512;50.102;19.958;2024-03-08T08:04:00;33.00;;;14.30;;
68509;SDS011;55512;50.102;19.958;2024-03-08T08:06:50;31.50;;;13.70;;
68509;SDS011;55512;50.102;19.958;2024-03-08T08:09:16;26.80;;;12.40;;
68509;SDS011;55512;50.102;19.958;2024-03-08T08:12:33;35.70;;;15.70;;
68509;SDS011;55512;50.102;19.958;2024-03-08T08:15:04;33.40;;;13.30;;
68509;SDS011;55512;50.102;19.958;2024-03-08T08:17:39;32.60;;;13.90;;
68509;SDS011;55512;50.102;19.958;2024-03-08T08:20:11;30.10;;;13.80;;
68509;SDS011;55512;50.102;19.958;2024-03-08T08:23:06;29.60;;;12.70;;
68509;SDS011;55512;50.102;19.958;2024-03-08T08:25:57;31.80;;;14.40;;
68509;SDS011;55512;50.102;19.958;2024-03-08T08:28:44;29.50;;;12.70;;
68509;SDS011;55512;50.102;19.958;2024-03-08T08:31:12;32.60;;;13.80;;
68509;SDS011;55512;50.102;19.958;2024-03-08T08:33:41;30.20;;;13.70;;
68509;SDS011;55512;50.102;19.958;2024-03-08T08:36:24;33.80;;;14.50;;
68509;SDS011;55512;50.102;19.958;2024-03-08T08:39:00;29.80;;;15.20;;
68509;SDS011;55512;50.102;19.958;2024-03-08T08:45:19;28.70;;;13.20;;
68509;SDS011;55512;50.102;19.958;2024-03-08T08:47:47;30.20;;;14.00;;
68509;SDS011;55512;50.102;19.958;2024-03-08T08:50:23;28.10;;;15.50;;
68509;SDS011;55512;50.102;19.958;2024-03-08T08:53:42;29.50;;;13.00;;
68509;SDS011;55512;50.102;19.958;2024-03-08T08:56:57;27.40;;;13.20;;
68509;SDS011;55512;50.102;19.958;2024-03-08T08:59:51;30.90;;;14.20;;
68509;SDS011;55512;50.102;19.958;2024-03-08T09:02:56;28.50;;;13.20;;
68509;SDS011;55512;50.102;19.958;2024-03-08T09:06:05;29.10;;;13.40;;
68509;SDS011;55512;50.102;19.958;2024-03-08T09:09:04;29.30;;;13.60;;
68509;SDS011;55512;50.102;19.958;2024-03-08T09:11:54;24.70;;;11.70;;
68509;SDS011;55512;50.102;19.958;2024-03-08T09:18:15;22.90;;;11.30;;
68509;SDS011;55512;50.102;19.958;2024-03-08T09:21:04;24.40;;;11.10;;
68509;SDS011;55512;50.102;19.958;2024-03-08T09:23:46;25.00;;;12.20;;
68509;SDS011;55512;50.102;19.958;2024-03-08T09:26:23;17.80;;;8.30;;
68509;SDS011;55512;50.102;19.958;2024-03-08T09:29:18;23.60;;;11.40;;
68509;SDS011;55512;50.102;19.958;2024-03-08T09:31:46;23.50;;;11.70;;
68509;SDS011;55512;50.102;19.958;2024-03-08T09:34:31;23.40;;;10.80;;
68509;SDS011;55512;50.102;19.958;2024-03-08T09:37:06;23.40;;;12.10;;
68509;SDS011;55512;50.102;19.958;2024-03-08T09:40:08;23.00;;;11.30;;
68509;SDS011;55512;50.102;19.958;2024-03-08T09:43:21;22.70;;;11.50;;
68509;SDS011;55512;50.102;19.958;2024-03-08T09:46:04;23.80;;;10.60;;
68509;SDS011;55512;50.102;19.958;2024-03-08T09:51:35;22.40;;;11.20;;
68509;SDS011;55512;50.102;19.958;2024-03-08T09:57:51;23.60;;;11.50;;
68509;SDS011;55512;50.102;19.958;2024-03-08T10:01:14;25.30;;;10.40;;
68509;SDS011;55512;50.102;19.958;2024-03-08T10:04:15;24.70;;;10.40;;
68509;SDS011;55512;50.102;19.958;2024-03-08T10:06:51;23.60;;;10.00;;
68509;SDS011;55512;50.102;19.958;2024-03-08T10:09:32;21.70;;;9.80;;
68509;SDS011;55512;50.102;19.958;2024-03-08T10:12:01;23.90;;;11.00;;
68509;SDS011;55512;50.102;19.958;2024-03-08T10:15:05;21.60;;;9.90;;
68509;SDS011;55512;50.102;19.958;2024-03-08T10:17:43;23.10;;;10.30;;
68509;SDS011;55512;50.102;19.958;2024-03-08T10:20:17;22.40;;;9.80;;
68509;SDS011;55512;50.102;19.958;2024-03-08T10:23:01;24.60;;;11.90;;
68509;SDS011;55512;50.102;19.958;2024-03-08T10:25:53;24.90;;;10.80;;
68509;SDS011;55512;50.102;19.958;2024-03-08T10:28:23;22.50;;;10.20;;
68509;SDS011;55512;50.102;19.958;2024-03-08T10:30:55;24.40;;;11.50;;
68509;SDS011;55512;50.102;19.958;2024-03-08T10:33:25;22.80;;;10.50;;
68509;SDS011;55512;50.102;19.958;2024-03-08T10:36:19;21.20;;;11.00;;
68509;SDS011;55512;50.102;19.958;2024-03-08T10:39:00;22.90;;;10.90;;
68509;SDS011;55512;50.102;19.958;2024-03-08T10:41:31;22.30;;;10.40;;
68509;SDS011;55512;50.102;19.958;2024-03-08T10:44:14;21.20;;;10.00;;
68509;SDS011;55512;50.102;19.958;2024-03-08T10:47:20;25.80;;;11.30;;
68509;SDS011;55512;50.102;19.958;2024-03-08T10:50:11;23.00;;;10.40;;
68509;SDS011;55512;50.102;19.958;2024-03-08T10:53:04;23.10;;;10.80;;
68509;SDS011;55512;50.102;19.958;2024-03-08T10:55:36;23.00;;;10.00;;
68509;SDS011;55512;50.102;19.958;2024-03-08T10:58:19;22.00;;;11.10;;
68509;SDS011;55512;50.102;19.958;2024-03-08T11:00:55;22.60;;;10.50;;
68509;SDS011;55512;50.102;19.958;2024-03-08T11:03:44;22.20;;;10.90;;
68509;SDS011;55512;50.102;19.958;2024-03-08T11:09:33;22.10;;;10.70;;
68509;SDS011;55512;50.102;19.958;2024-03-08T11:12:30;22.40;;;10.10;;
68509;SDS011;55512;50.102;19.958;2024-03-08T11:15:33;23.50;;;11.10;;
68509;SDS011;55512;50.102;19.958;2024-03-08T11:18:07;25.40;;;10.90;;
68509;SDS011;55512;50.102;19.958;2024-03-08T11:20:59;23.20;;;11.00;;
68509;SDS011;55512;50.102;19.958;2024-03-08T11:23:39;24.20;;;12.30;;
68509;SDS011;55512;50.102;19.958;2024-03-08T11:32:17;23.90;;;11.10;;
68509;SDS011;55512;50.102;19.958;2024-03-08T11:34:50;26.60;;;12.50;;
68509;SDS011;55512;50.102;19.958;2024-03-08T11:37:33;22.90;;;11.60;;
68509;SDS011;55512;50.102;19.958;2024-03-08T11:40:20;22.70;;;10.80;;
68509;SDS011;55512;50.102;19.958;2024-03-08T11:42:53;26.80;;;12.60;;
68509;SDS011;55512;50.102;19.958;2024-03-08T11:45:33;24.50;;;12.00;;
68509;SDS011;55512;50.102;19.958;2024-03-08T11:48:03;22.60;;;12.00;;
68509;SDS011;55512;50.102;19.958;2024-03-08T11:50:32;22.30;;;9.80;;
68509;SDS011;55512;50.102;19.958;2024-03-08T11:53:05;23.90;;;11.30;;
68509;SDS011;55512;50.102;19.958;2024-03-08T11:55:51;21.40;;;10.50;;
68509;SDS011;55512;50.102;19.958;2024-03-08T11:58:19;24.30;;;11.50;;
68509;SDS011;55512;50.102;19.958;2024-03-08T12:00:51;22.60;;;11.30;;
68509;SDS011;55512;50.102;19.958;2024-03-08T12:03:32;24.00;;;11.80;;
68509;SDS011;55512;50.102;19.958;2024-03-08T12:06:16;24.40;;;12.00;;
68509;SDS011;55512;50.102;19.958;2024-03-08T12:09:02;22.60;;;10.10;;
68509;SDS011;55512;50.102;19.958;2024-03-08T12:11:28;26.40;;;11.60;;
68509;SDS011;55512;50.102;19.958;2024-03-08T12:13:54;26.60;;;12.20;;
68509;SDS011;55512;50.102;19.958;2024-03-08T12:16:25;24.00;;;11.90;;
68509;SDS011;55512;50.102;19.958;2024-03-08T12:18:58;29.80;;;13.10;;
68509;SDS011;55512;50.102;19.958;2024-03-08T12:21:49;22.60;;;11.50;;
68509;SDS011;55512;50.102;19.958;2024-03-08T12:24:25;25.60;;;11.50;;
68509;SDS011;55512;50.102;19.958;2024-03-08T12:34:10;25.00;;;12.20;;
68509;SDS011;55512;50.102;19.958;2024-03-08T12:36:58;24.60;;;10.70;;
68509;SDS011;55512;50.102;19.958;2024-03-08T12:39:49;22.50;;;11.20;;
68509;SDS011;55512;50.102;19.958;2024-03-08T12:42:56;23.10;;;10.70;;
68509;SDS011;55512;50.102;19.958;2024-03-08T12:45:27;27.40;;;11.50;;
68509;SDS011;55512;50.102;19.958;2024-03-08T12:48:33;26.30;;;12.10;;
68509;SDS011;55512;50.102;19.958;2024-03-08T12:52:01;25.40;;;11.60;;
68509;SDS011;55512;50.102;19.958;2024-03-08T12:54:35;24.30;;;11.70;;
68509;SDS011;55512;50.102;19.958;2024-03-08T12:57:24;25.50;;;12.20;;
68509;SDS011;55512;50.102;19.958;2024-03-08T13:00:02;27.30;;;13.30;;
68509;SDS011;55512;50.102;19.958;2024-03-08T13:02:51;28.50;;;13.40;;
68509;SDS011;55512;50.102;19.958;2024-03-08T13:05:20;21.80;;;10.80;;
68509;SDS011;55512;50.102;19.958;2024-03-08T13:07:48;25.70;;;12.60;;
68509;SDS011;55512;50.102;19.958;2024-03-08T13:10:27;25.30;;;13.00;;
68509;SDS011;55512;50.102;19.958;2024-03-08T13:12:56;21.80;;;11.50;;
68509;SDS011;55512;50.102;19.958;2024-03-08T13:15:43;25.30;;;12.30;;
68509;SDS011;55512;50.102;19.958;2024-03-08T13:18:25;29.40;;;14.20;;
68509;SDS011;55512;50.102;19.958;2024-03-08T13:21:08;24.70;;;12.40;;
68509;SDS011;55512;50.102;19.958;2024-03-08T13:24:15;26.10;;;13.20;;
68509;SDS011;55512;50.102;19.958;2024-03-08T13:26:47;23.50;;;11.60;;
68509;SDS011;55512;50.102;19.958;2024-03-08T13:29:24;18.00;;;8.20;;
68509;SDS011;55512;50.102;19.958;2024-03-08T13:32:19;25.10;;;12.50;;
68509;SDS011;55512;50.102;19.958;2024-03-08T13:34:57;27.90;;;12.30;;
68509;SDS011;55512;50.102;19.958;2024-03-08T13:41:17;22.50;;;12.80;;
68509;SDS011;55512;50.102;19.958;2024-03-08T13:44:15;22.00;;;11.70;;
68509;SDS011;55512;50.102;19.958;2024-03-08T13:47:35;24.80;;;10.30;;
68509;SDS011;55512;50.102;19.958;2024-03-08T13:50:26;22.80;;;12.50;;
68509;SDS011;55512;50.102;19.958;2024-03-08T13:52:52;23.90;;;12.30;;
68509;SDS011;55512;50.102;19.958;2024-03-08T13:55:27;32.50;;;12.20;;
68509;SDS011;55512;50.102;19.958;2024-03-08T13:57:55;25.60;;;13.50;;
68509;SDS011;55512;50.102;19.958;2024-03-08T14:00:27;24.30;;;12.30;;
68509;SDS011;55512;50.102;19.958;2024-03-08T14:03:27;25.70;;;13.30;;
68509;SDS011;55512;50.102;19.958;2024-03-08T14:05:57;21.20;;;11.80;;
68509;SDS011;55512;50.102;19.958;2024-03-08T14:11:20;26.00;;;11.50;;
68509;SDS011;55512;50.102;19.958;2024-03-08T14:14:12;24.00;;;11.70;;
68509;SDS011;55512;50.102;19.958;2024-03-08T14:16:43;22.20;;;11.10;;
68509;SDS011;55512;50.102;19.958;2024-03-08T14:20:02;26.50;;;13.60;;
68509;SDS011;55512;50.102;19.958;2024-03-08T14:22:38;26.10;;;12.70;;
68509;SDS011;55512;50.102;19.958;2024-03-08T14:25:06;25.50;;;12.10;;
68509;SDS011;55512;50.102;19.958;2024-03-08T14:28:01;26.60;;;13.20;;
68509;SDS011;55512;50.102;19.958;2024-03-08T14:30:34;23.20;;;11.90;;
68509;SDS011;55512;50.102;19.958;2024-03-08T14:33:09;25.80;;;12.20;;
68509;SDS011;55512;50.102;19.958;2024-03-08T14:35:44;24.20;;;12.80;;
68509;SDS011;55512;50.102;19.958;2024-03-08T14:38:35;18.90;;;9.60;;
68509;SDS011;55512;50.102;19.958;2024-03-08T14:41:27;23.60;;;10.90;;
68509;SDS011;55512;50.102;19.958;2024-03-08T14:44:02;26.50;;;11.90;;
68509;SDS011;55512;50.102;19.958;2024-03-08T14:46:47;20.00;;;10.60;;
68509;SDS011;55512;50.102;19.958;2024-03-08T14:49:13;21.70;;;11.20;;
68509;SDS011;55512;50.102;19.958;2024-03-08T14:51:45;23.80;;;12.20;;
68509;SDS011;55512;50.102;19.958;2024-03-08T14:55:09;22.90;;;10.30;;
68509;SDS011;55512;50.102;19.958;2024-03-08T14:57:46;23.90;;;11.50;;
68509;SDS011;55512;50.102;19.958;2024-03-08T15:00:21;22.10;;;11.40;;
68509;SDS011;55512;50.102;19.958;2024-03-08T15:03:07;20.00;;;11.30;;
68509;SDS011;55512;50.102;19.958;2024-03-08T15:05:55;22.50;;;12.30;;
68509;SDS011;55512;50.102;19.958;2024-03-08T15:08:41;23.90;;;12.60;;
68509;SDS011;55512;50.102;19.958;2024-03-08T15:11:26;23.00;;;10.90;;
68509;SDS011;55512;50.102;19.958;2024-03-08T15:14:03;22.10;;;11.40;;
68509;SDS011;55512;50.102;19.958;2024-03-08T15:16:34;22.50;;;12.90;;
68509;SDS011;55512;50.102;19.958;2024-03-08T15:19:07;18.90;;;10.60;;
68509;SDS011;55512;50.102;19.958;2024-03-08T15:21:47;27.10;;;12.60;;
68509;SDS011;55512;50.102;19.958;2024-03-08T15:31:47;23.70;;;11.70;;
68509;SDS011;55512;50.102;19.958;2024-03-08T15:37:55;23.30;;;12.60;;
68509;SDS011;55512;50.102;19.958;2024-03-08T15:40:47;23.00;;;12.10;;
68509;SDS011;55512;50.102;19.958;2024-03-08T15:43:47;25.60;;;11.90;;
68509;SDS011;55512;50.102;19.958;2024-03-08T15:46:33;22.20;;;11.80;;
68509;SDS011;55512;50.102;19.958;2024-03-08T15:49:04;23.60;;;11.00;;
68509;SDS011;55512;50.102;19.958;2024-03-08T15:51:57;21.70;;;11.90;;
68509;SDS011;55512;50.102;19.958;2024-03-08T15:54:27;23.20;;;11.50;;
68509;SDS011;55512;50.102;19.958;2024-03-08T15:56:58;19.50;;;11.50;;
68509;SDS011;55512;50.102;19.958;2024-03-08T15:59:44;23.70;;;10.20;;
68509;SDS011;55512;50.102;19.958;2024-03-08T16:02:15;25.40;;;10.70;;
68509;SDS011;55512;50.102;19.958;2024-03-08T16:04:53;21.00;;;10.20;;
68509;SDS011;55512;50.102;19.958;2024-03-08T16:07:35;27.60;;;11.80;;
68509;SDS011;55512;50.102;19.958;2024-03-08T16:10:21;22.40;;;10.70;;
68509;SDS011;55512;50.102;19.958;2024-03-08T16:13:08;20.80;;;10.90;;
68509;SDS011;55512;50.102;19.958;2024-03-08T16:15:37;24.40;;;11.30;;
68509;SDS011;55512;50.102;19.958;2024-03-08T16:18:06;24.20;;;12.40;;
68509;SDS011;55512;50.102;19.958;2024-03-08T16:20:50;24.10;;;11.70;;
68509;SDS011;55512;50.102;19.958;2024-03-08T16:23:36;24.20;;;11.60;;
68509;SDS011;55512;50.102;19.958;2024-03-08T16:26:28;21.80;;;11.90;;
68509;SDS011;55512;50.102;19.958;2024-03-08T16:29:07;20.50;;;11.20;;
68509;SDS011;55512;50.102;19.958;2024-03-08T16:31:39;20.30;;;11.50;;
68509;SDS011;55512;50.102;19.958;2024-03-08T16:34:17;21.80;;;11.30;;
68509;SDS011;55512;50.102;19.958;2024-03-08T16:36:47;25.70;;;11.90;;
68509;SDS011;55512;50.102;19.958;2024-03-08T16:39:36;25.40;;;11.50;;
68509;SDS011;55512;50.102;19.958;2024-03-08T16:42:35;23.60;;;10.50;;
68509;SDS011;55512;50.102;19.958;2024-03-08T16:45:01;24.50;;;10.80;;
68509;SDS011;55512;50.102;19.958;2024-03-08T16:47:45;26.10;;;11.70;;
68509;SDS011;55512;50.102;19.958;2024-03-08T16:50:47;26.30;;;11.50;;
68509;SDS011;55512;50.102;19.958;2024-03-08T16:53:46;20.40;;;10.60;;
68509;SDS011;55512;50.102;19.958;2024-03-08T16:56:16;27.70;;;12.90;;
68509;SDS011;55512;50.102;19.958;2024-03-08T16:58:53;28.60;;;13.30;;
68509;SDS011;55512;50.102;19.958;2024-03-08T17:01:31;24.60;;;12.20;;
68509;SDS011;55512;50.102;19.958;2024-03-08T17:04:11;24.80;;;11.40;;
68509;SDS011;55512;50.102;19.958;2024-03-08T17:06:46;27.20;;;11.90;;
68509;SDS011;55512;50.102;19.958;2024-03-08T17:09:22;24.70;;;11.30;;
68509;SDS011;55512;50.102;19.958;2024-03-08T17:11:54;27.20;;;11.60;;
68509;SDS011;55512;50.102;19.958;2024-03-08T17:14:26;26.40;;;9.90;;
68509;SDS011;55512;50.102;19.958;2024-03-08T17:17:16;24.50;;;10.90;;
68509;SDS011;55512;50.102;19.958;2024-03-08T17:19:53;25.90;;;12.70;;
68509;SDS011;55512;50.102;19.958;2024-03-08T17:22:27;25.20;;;11.60;;
68509;SDS011;55512;50.102;19.958;2024-03-08T17:24:58;27.00;;;12.00;;
68509;SDS011;55512;50.102;19.958;2024-03-08T17:27:26;26.00;;;11.80;;
68509;SDS011;55512;50.102;19.958;2024-03-08T17:29:57;22.20;;;10.80;;
68509;SDS011;55512;50.102;19.958;2024-03-08T17:33:05;25.00;;;11.10;;
68509;SDS011;55512;50.102;19.958;2024-03-08T17:35:34;25.40;;;12.00;;
68509;SDS011;55512;50.102;19.958;2024-03-08T17:38:01;27.00;;;11.70;;
68509;SDS011;55512;50.102;19.958;2024-03-08T17:40:36;25.70;;;11.90;;
68509;SDS011;55512;50.102;19.958;2024-03-08T17:43:08;31.60;;;13.40;;
68509;SDS011;55512;50.102;19.958;2024-03-08T17:45:46;25.10;;;11.70;;